Time;durP1;ratioP1;P1;durP2;ratioP2;P2;SDS_P1;SDS_P2;PMS_P1;PMS_P2;Temp;Humidity;BMP_temperature;BMP_pressure;BME280_temperature;BME280_humidity;BME280_pressure;Samples;Min_cycle;Max_cycle;Signal;HPM_P1;HPM_P2
2022/10/29 00:01:02;;;;;;;;;8.75;8.50;;;;;13.73;62.11;102092.09;146617;600;46017;-71
2022/10/29 00:04:08;;;;;;;;;11.75;9.25;;;;;13.64;61.93;102082.00;146620;565;46012;-71
2022/10/29 00:07:09;;;;;;;;;7.00;6.50;;;;;13.58;62.15;102081.66;146617;606;46012;-72
2022/10/29 00:10:11;;;;;;;;;11.00;8.00;;;;;13.54;62.44;102088.38;146622;604;45021;-75
2022/10/29 00:13:06;;;;;;;;;10.75;10.25;;;;;13.50;62.76;102082.91;146619;590;46012;-78
2022/10/29 00:16:01;;;;;;;;;8.00;8.00;;;;;13.52;63.33;102094.31;146618;602;46021;-80
2022/10/29 00:19:10;;;;;;;;;11.75;10.00;;;;;13.49;62.82;102091.50;146618;625;46016;-77
2022/10/29 00:22:24;;;;;;;;;;;;;;;;;;;;;
2022/10/29 00:25:21;;;;;;;;;8.50;8.50;;;;;13.48;62.63;102080.19;146615;590;46019;-76
2022/10/29 00:28:16;;;;;;;;;11.50;11.00;;;;;13.38;62.90;102081.34;146621;612;46020;-75
2022/10/29 00:31:23;;;;;;;;;13.75;11.00;;;;;13.36;62.92;102082.97;146618;622;46916;-75
2022/10/29 00:34:16;;;;;;;;;11.00;11.00;;;;;13.32;63.36;102072.25;146619;563;46020;-73
2022/10/29 00:37:10;;;;;;;;;15.25;13.25;;;;;13.28;63.05;102076.38;146613;600;46016;-72
2022/10/29 00:40:02;;;;;;;;;13.25;12.00;;;;;13.33;62.96;102071.44;146617;606;46021;-73
2022/10/29 00:42:56;;;;;;;;;14.50;13.00;;;;;13.34;64.05;102071.53;146615;563;46014;-74
2022/10/29 00:46:02;;;;;;;;;12.75;11.75;;;;;13.34;63.04;102061.13;146616;598;46021;-73
2022/10/29 00:48:58;;;;;;;;;12.00;11.00;;;;;13.37;63.52;102066.53;146615;622;46016;-73
2022/10/29 00:52:06;;;;;;;;;;;;;;;;;;;;;
2022/10/29 00:55:10;;;;;;;;;;;;;;;;;;;;;
2022/10/29 00:58:07;;;;;;;;;10.25;10.00;;;;;13.39;63.00;102067.53;146619;596;46010;-73
2022/10/29 01:01:26;;;;;;;;;9.25;9.25;;;;;13.40;62.82;102058.00;146616;589;46013;-73
2022/10/29 01:04:31;;;;;;;;;13.00;9.25;;;;;13.31;63.67;102062.66;146617;582;46020;-73
2022/10/29 01:07:42;;;;;;;;;8.00;8.00;;;;;13.14;63.27;102058.94;146615;734;48012;-73
2022/10/29 01:11:21;;;;;;;;;11.00;10.00;;;;;11.34;63.35;101752.84;146619;608;46021;-74
2022/10/29 01:15:02;;;;;;;;;9.75;8.50;;;;;13.08;63.76;102051.69;146615;595;46016;-73
2022/10/29 01:18:35;;;;;;;;;;;;;;;;;;;;;
2022/10/29 01:21:59;;;;;;;;;9.50;7.25;;;;;13.00;63.57;102058.09;146617;698;46916;-73
2022/10/29 01:25:50;;;;;;;;;9.50;7.75;;;;;11.04;64.36;101698.13;146620;583;46021;-72
2022/10/29 01:29:25;;;;;;;;;10.00;7.75;;;;;11.21;63.82;101699.19;146617;593;46016;-73
2022/10/29 01:33:01;;;;;;;;;12.00;7.25;;;;;11.10;63.48;101646.63;146621;648;46020;-72
2022/10/29 01:36:21;;;;;;;;;7.75;7.75;;;;;13.51;64.49;102041.28;146616;571;46012;-75
2022/10/29 01:39:44;;;;;;;;;11.50;9.00;;;;;13.51;64.23;102037.78;146620;697;46011;-77
2022/10/29 01:43:13;;;;;;;;;8.00;8.00;;;;;13.46;63.11;102031.38;146617;571;46016;-72
2022/10/29 01:46:23;;;;;;;;;9.25;8.00;;;;;13.47;64.35;102039.31;146620;618;46021;-74
2022/10/29 01:49:41;;;;;;;;;10.25;8.25;;;;;13.40;63.99;102029.34;146617;581;46016;-73
2022/10/29 01:52:50;;;;;;;;;9.75;8.00;;;;;11.38;64.73;101689.91;146621;619;46010;-73
2022/10/29 01:55:42;;;;;;;;;11.00;8.00;;;;;13.29;65.52;102026.06;146614;570;46017;-74
2022/10/29 01:59:02;;;;;;;;;8.25;8.00;;;;;13.26;65.04;102025.88;146619;582;46020;-74
2022/10/29 02:02:31;;;;;;;;;8.25;8.25;;;;;11.19;64.63;101677.47;146617;645;46013;-73
2022/10/29 02:06:02;;;;;;;;;9.00;8.75;;;;;13.09;65.27;102019.63;146621;675;46022;-77
2022/10/29 02:09:26;;;;;;;;;11.50;10.25;;;;;11.13;65.29;101670.97;146615;585;46017;-76
2022/10/29 02:12:34;;;;;;;;;8.75;7.25;;;;;13.08;65.25;102016.91;146618;599;46020;-75
2022/10/29 02:15:55;;;;;;;;;10.00;10.00;;;;;10.85;66.21;101627.69;146617;579;46016;-72
2022/10/29 02:19:02;;;;;;;;;9.75;9.00;;;;;13.03;66.54;102016.63;146616;679;46020;-74
2022/10/29 02:21:56;;;;;;;;;8.00;7.25;;;;;13.00;66.55;102015.56;146619;573;46016;-72
2022/10/29 02:24:48;;;;;;;;;9.25;9.25;;;;;13.00;66.66;102019.03;146621;645;46020;-79
2022/10/29 02:27:49;;;;;;;;;13.25;10.25;;;;;12.95;66.52;102010.94;146616;624;46012;-76
2022/10/29 02:30:44;;;;;;;;;10.25;10.25;;;;;12.88;67.12;102003.56;146617;622;46021;-74
2022/10/29 02:33:54;;;;;;;;;10.00;9.50;;;;;12.83;67.14;102012.78;146617;606;46014;-73
2022/10/29 02:37:02;;;;;;;;;11.50;10.50;;;;;10.47;66.43;101607.94;146620;617;46010;-72
2022/10/29 02:40:07;;;;;;;;;10.75;10.75;;;;;10.63;67.03;101644.44;146614;607;46012;-72
2022/10/29 02:43:00;;;;;;;;;9.25;8.75;;;;;12.65;67.98;102002.13;146612;639;46010;-73
2022/10/29 02:46:25;;;;;;;;;12.25;10.50;;;;;10.61;66.38;101640.84;146618;597;46017;-73
2022/10/29 02:49:19;;;;;;;;;9.50;8.75;;;;;12.66;68.25;102013.44;146617;569;46020;-72
2022/10/29 02:52:32;;;;;;;;;10.25;9.75;;;;;10.25;66.84;101590.03;146619;574;46013;-73
2022/10/29 02:55:26;;;;;;;;;11.00;10.00;;;;;12.57;68.18;101998.12;146621;579;46010;-71
2022/10/29 02:58:32;;;;;;;;;13.00;11.00;;;;;12.57;67.71;101999.84;146616;628;46012;-71
2022/10/29 03:01:33;;;;;;;;;11.00;10.75;;;;;12.55;67.92;101993.63;146617;631;46020;-72
2022/10/29 03:04:28;;;;;;;;;11.25;10.50;;;;;12.56;67.83;101991.12;146616;564;46037;-71
2022/10/29 03:07:21;;;;;;;;;14.75;13.00;;;;;12.60;68.63;101998.31;146618;576;46020;-72
2022/10/29 03:10:13;;;;;;;;;16.00;13.00;;;;;12.58;68.40;101993.81;146615;654;46016;-72
2022/10/29 03:13:17;;;;;;;;;14.25;12.75;;;;;12.49;68.34;101986.31;146617;617;46020;-71
2022/10/29 03:16:18;;;;;;;;;13.75;13.00;;;;;12.40;68.82;101988.38;146615;650;46012;-72
2022/10/29 03:19:12;;;;;;;;;13.25;12.25;;;;;12.35;69.39;101988.06;146620;639;46010;-72
2022/10/29 03:22:08;;;;;;;;;11.25;10.75;;;;;12.37;69.49;101982.97;146609;564;47013;-72
2022/10/29 03:25:12;;;;;;;;;12.50;10.50;;;;;12.40;68.84;101981.47;146620;628;46010;-71
2022/10/29 03:28:08;;;;;;;;;13.75;10.75;;;;;12.42;68.66;101987.62;146619;690;46012;-75
2022/10/29 03:31:11;;;;;;;;;10.00;10.00;;;;;12.42;69.29;101986.75;146619;569;46020;-74
2022/10/29 03:34:07;;;;;;;;;10.00;9.00;;;;;12.43;69.29;101988.56;146616;630;46036;-73
2022/10/29 03:37:06;;;;;;;;;12.25;11.25;;;;;12.40;68.91;101976.25;146620;590;46012;-74
2022/10/29 03:39:59;;;;;;;;;16.00;13.00;;;;;12.46;69.98;101979.25;146617;646;46016;-73
2022/10/29 03:42:54;;;;;;;;;13.75;12.75;;;;;12.51;70.13;101983.84;146619;630;46010;-73
2022/10/29 03:45:46;;;;;;;;;10.50;9.50;;;;;12.45;69.78;101984.34;146615;625;46914;-72
2022/10/29 03:48:44;;;;;;;;;13.00;10.50;;;;;12.42;69.54;101979.84;146621;637;46010;-77
2022/10/29 03:51:39;;;;;;;;;9.50;9.50;;;;;12.39;70.24;101987.44;146613;631;46017;-75
2022/10/29 03:54:44;;;;;;;;;11.00;10.00;;;;;12.38;69.43;101988.25;146622;600;46020;-73
2022/10/29 03:57:44;;;;;;;;;12.25;9.75;;;;;12.41;69.98;101990.16;146617;643;46016;-74
2022/10/29 04:01:01;;;;;;;;;;;;;;;;;;;;;
2022/10/29 04:03:54;;;;;;;;;12.25;11.50;;;;;12.40;70.58;101991.88;146612;572;47016;-76
2022/10/29 04:06:58;;;;;;;;;11.50;11.00;;;;;12.38;70.71;101988.25;146618;572;45021;-76
2022/10/29 04:09:51;;;;;;;;;12.00;10.00;;;;;12.35;70.14;101975.06;146614;656;46012;-71
2022/10/29 04:12:52;;;;;;;;;14.00;11.75;;;;;12.38;70.19;101985.66;146619;566;46010;-71
2022/10/29 04:15:52;;;;;;;;;15.75;12.00;;;;;12.43;71.31;101989.47;146615;569;46016;-72
2022/10/29 04:18:48;;;;;;;;;16.25;13.00;;;;;12.38;71.20;101990.84;146619;577;46010;-74
2022/10/29 04:21:48;;;;;;;;;14.75;13.75;;;;;12.33;71.13;101992.25;146612;564;46913;-74
2022/10/29 04:24:46;;;;;;;;;11.25;10.50;;;;;12.29;72.56;101990.28;146619;586;46012;-73
2022/10/29 04:27:39;;;;;;;;;12.75;11.50;;;;;12.24;71.33;101989.06;146618;578;46013;-76
2022/10/29 04:30:34;;;;;;;;;12.75;11.75;;;;;12.20;71.67;101989.66;146617;680;46021;-69
2022/10/29 04:33:34;;;;;;;;;14.00;12.75;;;;;12.17;72.38;101990.38;146616;667;46014;-69
2022/10/29 04:36:35;;;;;;;;;12.25;10.25;;;;;12.15;72.18;101991.06;146619;584;46021;-69
2022/10/29 04:39:30;;;;;;;;;15.00;14.00;;;;;12.13;71.86;101987.47;146613;590;46012;-71
2022/10/29 04:42:27;;;;;;;;;10.00;10.00;;;;;12.12;71.41;101983.06;146618;578;46020;-74
2022/10/29 04:45:38;;;;;;;;;16.00;12.25;;;;;12.13;71.09;101990.09;146615;599;46017;-76
2022/10/29 04:48:35;;;;;;;;;15.00;11.75;;;;;12.10;71.62;101985.59;146613;577;46020;-74
2022/10/29 04:51:35;;;;;;;;;20.00;13.75;;;;;12.09;71.90;101982.91;146616;639;46018;-75
2022/10/29 04:54:36;;;;;;;;;13.25;12.25;;;;;12.11;72.34;101989.06;146614;601;46010;-74
2022/10/29 04:57:35;;;;;;;;;12.75;12.50;;;;;12.11;71.75;101994.28;146613;609;46016;-78
2022/10/29 05:00:30;;;;;;;;;16.50;14.00;;;;;12.16;71.45;101978.19;146617;628;46020;-75
2022/10/29 05:03:23;;;;;;;;;14.00;13.50;;;;;12.21;73.00;101979.37;146613;585;46016;-75
2022/10/29 05:06:16;;;;;;;;;15.25;15.25;;;;;12.17;72.71;101981.66;146615;566;46010;-72
2022/10/29 05:09:16;;;;;;;;;16.75;15.50;;;;;12.19;72.23;101983.56;146614;586;46016;-74
2022/10/29 05:12:11;;;;;;;;;16.50;14.25;;;;;12.21;71.66;101973.25;146615;576;46010;-75
2022/10/29 05:15:06;;;;;;;;;16.75;14.75;;;;;12.28;72.62;101982.37;146611;605;47014;-76
2022/10/29 05:18:03;;;;;;;;;19.25;17.50;;;;;12.33;71.82;101989.66;146622;610;46012;-75
2022/10/29 05:20:59;;;;;;;;;18.75;17.50;;;;;12.40;71.66;101986.66;146617;578;46016;-72
2022/10/29 05:23:57;;;;;;;;;20.50;16.00;;;;;12.48;71.95;101985.44;146618;627;46020;-73
2022/10/29 05:27:01;;;;;;;;;18.75;16.00;;;;;12.53;72.54;101990.06;146611;623;46017;-72
2022/10/29 05:30:01;;;;;;;;;20.25;18.50;;;;;12.62;71.89;101995.84;146617;653;46020;-72
2022/10/29 05:33:02;;;;;;;;;18.75;17.75;;;;;13.05;74.33;102004.62;146611;698;46016;-74
2022/10/29 05:35:59;;;;;;;;;18.50;16.75;;;;;14.08;72.24;102001.22;146620;569;46012;-72
2022/10/29 05:38:55;;;;;;;;;17.25;17.25;;;;;15.22;69.14;102002.25;146612;619;46016;-76
2022/10/29 05:41:57;;;;;;;;;20.75;17.50;;;;;16.26;64.71;102009.28;146608;572;46029;-79
2022/10/29 05:44:50;;;;;;;;;23.00;20.50;;;;;17.13;62.92;101999.41;146613;604;46016;-71
2022/10/29 05:48:00;;;;;;;;;23.25;19.25;;;;;18.07;60.83;101993.81;146614;602;46010;-71
2022/10/29 05:51:10;;;;;;;;;16.00;15.25;;;;;18.24;58.69;101848.41;146611;624;47024;-71
2022/10/29 05:54:05;;;;;;;;;21.25;19.50;;;;;19.88;56.13;102004.16;146614;577;46020;-70
2022/10/29 05:57:04;;;;;;;;;19.75;15.75;;;;;20.49;54.51;102000.84;146613;603;46017;-69
2022/10/29 05:59:58;;;;;;;;;19.50;17.50;;;;;21.06;53.08;101996.41;146614;593;46010;-71
2022/10/29 06:02:56;;;;;;;;;14.00;13.00;;;;;21.57;52.57;102004.91;146614;584;46024;-70
2022/10/29 06:06:02;;;;;;;;;17.75;15.25;;;;;22.06;52.05;101994.72;146614;674;46010;-70
2022/10/29 06:09:10;;;;;;;;;17.25;17.25;;;;;22.57;50.52;101999.44;146610;578;46016;-70
2022/10/29 06:12:13;;;;;;;;;20.50;17.25;;;;;22.89;48.70;102008.06;146617;570;46021;-70
2022/10/29 06:15:23;;;;;;;;;24.00;19.25;;;;;22.71;47.42;102010.31;146617;563;46014;-69
2022/10/29 06:18:24;;;;;;;;;20.75;18.25;;;;;22.23;48.54;102008.34;146619;607;46010;-70
2022/10/29 06:21:27;;;;;;;;;19.00;17.25;;;;;20.12;49.09;101727.56;146613;646;46016;-70
2022/10/29 06:24:23;;;;;;;;;18.00;17.75;;;;;21.37;49.96;102014.00;146618;612;45020;-71
2022/10/29 06:27:20;;;;;;;;;17.00;13.50;;;;;21.10;51.44;102008.84;146616;566;46012;-70
2022/10/29 06:30:16;;;;;;;;;20.50;18.00;;;;;21.04;51.73;102013.94;146618;583;45020;-70
2022/10/29 06:33:14;;;;;;;;;16.00;14.25;;;;;21.06;52.06;102018.44;146615;583;46016;-71
2022/10/29 06:36:20;;;;;;;;;19.75;18.75;;;;;19.32;51.65;101717.31;146617;600;46020;-70
2022/10/29 06:39:18;;;;;;;;;21.50;18.00;;;;;20.70;51.59;102021.75;146616;576;46012;-70
2022/10/29 06:42:12;;;;;;;;;16.75;16.50;;;;;20.36;51.98;102032.94;146614;572;46020;-70
2022/10/29 06:45:07;;;;;;;;;19.00;16.50;;;;;19.97;52.08;102032.50;146615;636;46014;-69
2022/10/29 06:47:59;;;;;;;;;18.50;16.25;;;;;19.45;54.33;102035.97;146619;620;46011;-69
2022/10/29 06:50:57;;;;;;;;;16.50;15.00;;;;;19.32;56.01;102038.16;146614;597;46016;-70
2022/10/29 06:54:01;;;;;;;;;19.75;15.00;;;;;19.27;55.73;102036.19;146617;683;46020;-70
2022/10/29 06:56:56;;;;;;;;;63.25;49.00;;;;;19.11;56.91;102037.34;146618;616;45035;-69
2022/10/29 06:59:58;;;;;;;;;20.25;18.25;;;;;19.09;56.81;102045.16;146611;605;46020;-69
2022/10/29 07:03:06;;;;;;;;;;;;;;;;;;;;;
2022/10/29 07:06:02;;;;;;;;;15.00;15.00;;;;;19.17;56.13;102042.84;146617;670;46010;-70
2022/10/29 07:09:00;;;;;;;;;60.75;46.75;;;;;19.18;56.94;102038.47;146615;589;46012;-70
2022/10/29 07:11:59;;;;;;;;;63.75;46.50;;;;;19.34;57.39;102039.06;146616;642;46010;-70
2022/10/29 07:14:57;;;;;;;;;61.00;46.00;;;;;19.59;57.29;102032.06;146612;655;46016;-70
2022/10/29 07:18:16;;;;;;;;;;;;;;;;;;;;;
2022/10/29 07:21:15;;;;;;;;;48.00;38.50;;;;;20.03;56.64;102032.72;146611;752;46018;-70
2022/10/29 07:24:16;;;;;;;;;34.00;28.50;;;;;20.25;55.25;102031.72;146615;599;46032;-69
2022/10/29 07:27:11;;;;;;;;;20.25;17.75;;;;;20.32;54.19;102035.44;146613;570;46017;-69
2022/10/29 07:30:18;;;;;;;;;32.50;30.25;;;;;20.34;54.82;102039.87;146617;634;46010;-69
2022/10/29 07:33:24;;;;;;;;;23.75;20.50;;;;;20.47;54.40;102039.47;146614;597;46013;-69
2022/10/29 07:36:35;;;;;;;;;26.00;20.25;;;;;20.69;55.23;102040.16;146616;645;46020;-69
2022/10/29 07:39:36;;;;;;;;;30.50;26.50;;;;;20.89;54.37;102036.38;146612;603;46016;-69
2022/10/29 07:42:45;;;;;;;;;26.25;23.25;;;;;21.17;54.08;102031.91;146618;575;46010;-71
2022/10/29 07:45:48;;;;;;;;;19.50;17.50;;;;;21.40;52.18;102028.22;146614;565;46016;-70
2022/10/29 07:48:43;;;;;;;;;15.00;14.00;;;;;21.57;51.70;102031.28;146617;564;46010;-69
2022/10/29 07:51:42;;;;;;;;;21.75;17.25;;;;;21.58;51.94;102022.50;146613;601;46016;-69
2022/10/29 07:54:37;;;;;;;;;17.50;16.50;;;;;21.56;51.71;102026.87;146618;572;45023;-69
2022/10/29 07:57:38;;;;;;;;;16.50;16.00;;;;;21.59;52.96;102020.81;146613;605;46016;-70
2022/10/29 08:01:09;;;;;;;;;19.00;18.25;;;;;20.74;52.96;101854.91;146612;703;46030;-70
2022/10/29 08:04:13;;;;;;;;;18.00;16.00;;;;;21.66;51.97;102021.00;146615;632;46016;-70
2022/10/29 08:07:16;;;;;;;;;22.50;19.75;;;;;21.51;52.69;102011.78;146616;563;46020;-71
2022/10/29 08:10:19;;;;;;;;;16.50;16.50;;;;;21.43;53.18;102009.81;146613;586;46025;-71
2022/10/29 08:13:25;;;;;;;;;15.00;14.50;;;;;21.49;52.63;102016.09;146616;573;46020;-70
2022/10/29 08:16:18;;;;;;;;;19.75;16.75;;;;;21.59;52.86;102018.16;146617;566;45016;-70
2022/10/29 08:19:34;;;;;;;;;15.25;15.25;;;;;20.26;51.88;101772.75;146618;564;46010;-70
2022/10/29 08:22:29;;;;;;;;;16.00;14.00;;;;;21.83;50.88;102013.50;146618;584;46012;-69
2022/10/29 08:25:27;;;;;;;;;15.25;15.25;;;;;21.89;52.02;102013.66;146618;576;46021;-70
2022/10/29 08:28:32;;;;;;;;;;;;;;;;;;;;;
2022/10/29 08:31:33;;;;;;;;;12.25;10.75;;;;;22.25;49.68;102006.63;146620;603;46036;-70
2022/10/29 08:34:32;;;;;;;;;15.50;15.50;;;;;22.36;48.61;102003.37;146615;576;46016;-70
2022/10/29 08:37:36;;;;;;;;;12.50;11.50;;;;;22.33;49.25;102000.66;146619;616;46020;-70
2022/10/29 08:41:25;;;;;;;;;13.00;10.25;;;;;20.72;49.42;101706.41;146613;595;46016;-69
2022/10/29 08:45:12;;;;;;;;;16.00;14.25;;;;;22.47;49.96;101993.06;146617;583;45020;-71
2022/10/29 08:48:46;;;;;;;;;15.50;13.50;;;;;20.87;51.38;101697.09;146614;564;46017;-70
2022/10/29 08:52:14;;;;;;;;;13.75;13.00;;;;;22.53;50.31;101982.63;146615;594;46020;-69
2022/10/29 08:55:48;;;;;;;;;11.50;9.25;;;;;22.63;51.85;101978.44;146614;565;46017;-70
2022/10/29 08:59:15;;;;;;;;;11.25;9.75;;;;;20.80;50.20;101634.53;146619;571;46010;-73
2022/10/29 09:02:29;;;;;;;;;11.25;11.25;;;;;22.79;50.93;101971.72;146618;580;46012;-71
2022/10/29 09:05:28;;;;;;;;;15.00;13.00;;;;;22.84;50.21;101962.13;146609;577;46910;-69
2022/10/29 09:09:19;;;;;;;;;12.25;11.50;;;;;21.00;51.47;101641.19;146614;650;46016;-71
2022/10/29 09:13:07;;;;;;;;;10.00;9.00;;;;;21.40;51.99;101708.03;146618;643;46020;-70
2022/10/29 09:16:23;;;;;;;;;10.75;9.50;;;;;22.99;50.25;101957.19;146617;598;46015;-69
2022/10/29 09:19:43;;;;;;;;;12.50;11.00;;;;;22.97;49.55;101960.66;146621;576;46021;-72
2022/10/29 09:22:50;;;;;;;;;9.75;9.75;;;;;23.04;47.71;101950.22;146616;673;46016;-72
2022/10/29 09:25:55;;;;;;;;;11.75;10.75;;;;;23.22;44.48;101951.44;146621;577;46011;-73
2022/10/29 09:29:28;;;;;;;;;9.75;9.75;;;;;22.39;46.63;101787.62;146617;605;46016;-72
2022/10/29 09:32:36;;;;;;;;;11.00;8.33;;;;;23.40;46.25;101945.59;146623;566;46010;-71
2022/10/29 09:35:55;;;;;;;;;10.33;10.00;;;;;21.93;46.43;101673.97;146618;588;46016;-70
2022/10/29 09:39:30;;;;;;;;;10.67;10.00;;;;;21.92;47.74;101657.22;146618;577;46020;-70
2022/10/29 09:42:51;;;;;;;;;13.75;11.50;;;;;23.62;45.86;101931.87;146615;576;46016;-71
2022/10/29 09:46:45;;;;;;;;;10.00;9.00;;;;;22.76;45.82;101770.69;146617;627;46010;-71
2022/10/29 09:50:32;;;;;;;;;8.75;8.75;;;;;22.36;43.50;101651.03;146618;670;46012;-71
2022/10/29 09:53:28;;;;;;;;;10.25;10.25;;;;;24.01;41.75;101920.12;146620;693;46021;-72
2022/10/29 09:56:32;;;;;;;;;11.33;11.00;;;;;23.98;40.38;101920.97;146617;607;46012;-72
2022/10/29 09:59:51;;;;;;;;;11.33;10.67;;;;;23.79;44.30;101913.62;146620;614;46020;-72
2022/10/29 10:03:16;;;;;;;;;8.67;8.67;;;;;23.61;43.93;101910.63;146616;575;46016;-73
2022/10/29 10:06:26;;;;;;;;;;;;;;;;;;;;;
2022/10/29 10:09:28;;;;;;;;;9.75;8.50;;;;;23.68;45.49;101899.31;146608;578;47914;-75
2022/10/29 10:12:26;;;;;;;;;10.75;10.75;;;;;23.78;45.56;101903.91;146622;649;46010;-72
2022/10/29 10:15:25;;;;;;;;;9.67;8.67;;;;;23.87;43.93;101898.75;146616;634;46016;-73
2022/10/29 10:18:31;;;;;;;;;9.00;7.00;;;;;23.79;41.44;101897.72;146617;708;46021;-75
2022/10/29 10:21:45;;;;;;;;;11.75;10.00;;;;;22.29;42.84;101654.44;146619;609;46012;-71
2022/10/29 10:24:52;;;;;;;;;11.00;9.50;;;;;23.58;45.48;101889.41;146615;581;46021;-72
2022/10/29 10:28:01;;;;;;;;;;;;;;;;;;;;;
2022/10/29 10:31:36;;;;;;;;;14.50;13.00;;;;;22.30;48.25;101653.56;146619;624;46012;-73
2022/10/29 10:34:53;;;;;;;;;16.25;15.75;;;;;23.74;47.29;101883.53;146615;643;46016;-74
2022/10/29 10:38:03;;;;;;;;;16.25;16.00;;;;;23.82;45.91;101879.25;146618;570;46020;-73
2022/10/29 10:41:24;;;;;;;;;10.00;9.50;;;;;23.92;48.23;101882.91;146615;573;46016;-72
2022/10/29 10:44:28;;;;;;;;;12.75;11.75;;;;;23.96;45.61;101871.50;146620;722;46012;-72
2022/10/29 10:47:49;;;;;;;;;12.75;12.00;;;;;24.03;46.32;101864.53;146615;643;46012;-71
2022/10/29 10:50:56;;;;;;;;;;;;;;;;;;;;;
2022/10/29 10:54:01;;;;;;;;;12.25;11.75;;;;;24.15;44.05;101864.72;146615;620;46017;-72
2022/10/29 10:57:05;;;;;;;;;0.00;0.00;;;;;24.32;46.10;101863.16;146621;607;46010;-73
2022/10/29 11:00:29;;;;;;;;;10.25;9.50;;;;;22.85;46.76;101583.09;146616;664;46016;-72
2022/10/29 11:03:45;;;;;;;;;15.50;12.75;;;;;24.48;43.03;101852.78;146622;671;46010;-72
2022/10/29 11:06:58;;;;;;;;;13.50;12.75;;;;;24.52;46.28;101852.84;146616;572;46014;-73
2022/10/29 11:10:08;;;;;;;;;11.25;10.50;;;;;24.49;44.74;101850.16;146616;569;46010;-72
2022/10/29 11:13:22;;;;;;;;;12.25;12.25;;;;;24.50;47.21;101843.97;146613;563;46016;-74
2022/10/29 11:16:55;;;;;;;;;10.50;9.50;;;;;24.45;45.10;101835.06;146613;578;46010;-72
2022/10/29 11:19:59;;;;;;;;;9.50;9.50;;;;;24.52;43.48;101828.97;146619;659;46016;-74
2022/10/29 11:23:28;;;;;;;;;10.25;10.00;;;;;24.57;45.36;101823.72;146620;579;46010;-73
2022/10/29 11:27:02;;;;;;;;;10.75;10.75;;;;;23.19;46.35;101573.03;146612;651;46012;-74
2022/10/29 11:30:23;;;;;;;;;8.00;8.00;;;;;24.75;44.15;101808.00;146614;618;46011;-73
2022/10/29 11:34:07;;;;;;;;;;;;;;;;;;;;;
2022/10/29 11:37:54;;;;;;;;;10.25;9.50;;;;;23.56;45.74;101558.47;146622;623;46010;-72
2022/10/29 11:41:24;;;;;;;;;10.00;9.67;;;;;25.03;44.75;101800.31;146619;565;46016;-73
2022/10/29 11:44:28;;;;;;;;;10.75;9.50;;;;;25.04;40.09;101799.41;146624;662;46010;-72
2022/10/29 11:48:08;;;;;;;;;10.25;9.50;;;;;25.01;44.12;101792.31;146617;640;46017;-71
2022/10/29 11:51:16;;;;;;;;;9.00;9.00;;;;;24.98;42.31;101786.97;146620;661;47010;-75
2022/10/29 11:54:51;;;;;;;;;10.00;9.00;;;;;24.98;43.93;101778.12;146619;615;46012;-72
2022/10/29 11:58:14;;;;;;;;;10.25;10.25;;;;;25.06;44.66;101781.75;146621;646;46010;-72
2022/10/29 12:01:45;;;;;;;;;10.50;10.50;;;;;25.07;45.26;101779.09;146613;631;46014;-73
2022/10/29 12:05:05;;;;;;;;;7.25;7.25;;;;;23.42;44.42;101491.25;146613;628;46012;-72
2022/10/29 12:08:40;;;;;;;;;8.00;8.00;;;;;23.50;44.62;101513.41;146619;618;46013;-72
2022/10/29 12:12:08;;;;;;;;;9.75;9.00;;;;;24.87;45.03;101772.75;146624;569;46010;-73
2022/10/29 12:15:38;;;;;;;;;10.50;10.50;;;;;24.81;46.06;101764.72;146619;590;46013;-71
2022/10/29 12:18:57;;;;;;;;;9.00;9.00;;;;;24.74;44.67;101766.44;146612;609;47036;-71
2022/10/29 12:22:30;;;;;;;;;12.00;9.50;;;;;23.15;44.17;101494.50;146617;609;46017;-73
2022/10/29 12:25:59;;;;;;;;;10.25;8.75;;;;;24.71;42.71;101760.22;146621;650;46010;-71
2022/10/29 12:29:45;;;;;;;;;8.33;8.00;;;;;24.78;43.71;101744.38;146621;657;46018;-72
2022/10/29 12:33:29;;;;;;;;;10.33;8.33;;;;;23.26;41.32;101477.84;146621;662;46020;-72
2022/10/29 12:36:51;;;;;;;;;10.67;7.67;;;;;24.87;41.63;101747.09;146620;656;46017;-72
2022/10/29 12:40:20;;;;;;;;;9.25;9.25;;;;;24.96;42.04;101748.06;146620;592;46020;-72
2022/10/29 12:43:25;;;;;;;;;8.00;8.00;;;;;25.00;37.30;101753.41;146617;651;46016;-72
2022/10/29 12:46:54;;;;;;;;;9.00;9.00;;;;;23.46;43.85;101483.38;146621;682;46020;-72
2022/10/29 12:50:38;;;;;;;;;;;;;;;;;;;;;
2022/10/29 12:53:56;;;;;;;;;9.50;9.50;;;;;24.95;43.36;101747.16;146622;590;46010;-72
2022/10/29 12:56:56;;;;;;;;;9.67;9.33;;;;;24.96;41.11;101742.75;146620;581;46012;-72
2022/10/29 12:59:54;;;;;;;;;10.25;8.25;;;;;25.04;43.43;101736.59;146622;655;46021;-72
2022/10/29 13:02:54;;;;;;;;;11.50;10.25;;;;;25.09;43.50;101741.97;146618;694;46915;-74
2022/10/29 13:06:00;;;;;;;;;8.25;8.25;;;;;25.03;42.83;101742.81;146618;635;46021;-72
2022/10/29 13:09:14;;;;;;;;;10.50;10.50;;;;;24.96;45.01;101741.00;146619;592;46034;-72
2022/10/29 13:12:47;;;;;;;;;11.00;10.00;;;;;24.93;43.76;101740.09;146617;623;46010;-71
2022/10/29 13:15:49;;;;;;;;;13.00;12.00;;;;;24.89;44.31;101733.84;146612;585;46017;-73
2022/10/29 13:19:18;;;;;;;;;;;;;;;;;;;;;
2022/10/29 13:22:58;;;;;;;;;11.67;9.67;;;;;23.40;43.75;101467.44;146619;565;46012;-72
2022/10/29 13:26:04;;;;;;;;;11.33;10.00;;;;;25.06;41.95;101734.87;146618;637;46010;-70
2022/10/29 13:29:03;;;;;;;;;9.67;9.00;;;;;25.10;43.03;101731.34;146617;587;46015;-72
2022/10/29 13:32:13;;;;;;;;;9.50;9.00;;;;;25.06;44.68;101734.87;146621;592;46010;-71
2022/10/29 13:35:49;;;;;;;;;9.33;8.33;;;;;25.07;44.29;101723.38;146619;576;46012;-71
2022/10/29 13:39:33;;;;;;;;;9.00;8.25;;;;;23.62;44.39;101457.94;146619;590;46010;-72
2022/10/29 13:42:43;;;;;;;;;9.00;9.00;;;;;25.08;40.83;101726.94;146618;570;46016;-72
2022/10/29 13:45:39;;;;;;;;;10.00;9.00;;;;;24.88;42.06;101721.44;146620;581;46021;-71
2022/10/29 13:48:57;;;;;;;;;9.75;9.00;;;;;24.66;44.20;101723.03;146617;564;46915;-71
2022/10/29 13:52:07;;;;;;;;;10.75;8.50;;;;;24.50;43.72;101718.47;146622;622;45021;-72
2022/10/29 13:55:26;;;;;;;;;8.75;8.00;;;;;22.98;45.21;101489.84;146619;615;45016;-72
2022/10/29 13:59:06;;;;;;;;;8.00;8.00;;;;;22.56;45.62;101458.44;146620;696;46033;-73
2022/10/29 14:02:15;;;;;;;;;10.50;10.00;;;;;23.93;44.17;101718.72;146618;699;46016;-73
2022/10/29 14:05:31;;;;;;;;;9.75;9.25;;;;;23.80;44.72;101714.13;146615;599;46020;-70
2022/10/29 14:09:06;;;;;;;;;9.50;8.50;;;;;23.69;44.39;101718.41;146618;571;46016;-72
2022/10/29 14:12:14;;;;;;;;;10.00;8.50;;;;;23.58;44.62;101719.97;146619;601;46020;-71
2022/10/29 14:15:24;;;;;;;;;12.00;11.00;;;;;23.49;44.69;101716.34;146619;644;46012;-71
2022/10/29 14:18:31;;;;;;;;;9.67;9.67;;;;;23.37;44.34;101713.53;146619;627;46010;-71
2022/10/29 14:21:42;;;;;;;;;14.75;11.75;;;;;23.31;45.12;101715.19;146617;719;46017;-72
2022/10/29 14:24:55;;;;;;;;;9.67;9.00;;;;;21.66;45.22;101427.09;146621;578;46010;-73
2022/10/29 14:27:47;;;;;;;;;10.75;10.25;;;;;23.24;43.12;101704.53;146616;667;46017;-72
2022/10/29 14:30:53;;;;;;;;;9.00;9.00;;;;;23.20;43.28;101707.06;146617;563;46020;-74
2022/10/29 14:34:19;;;;;;;;;10.00;8.75;;;;;23.11;43.08;101701.66;146619;597;46012;-71
2022/10/29 14:37:50;;;;;;;;;9.25;8.00;;;;;22.99;43.54;101697.03;146619;664;46020;-71
2022/10/29 14:40:44;;;;;;;;;9.75;9.75;;;;;22.88;42.42;101696.84;146618;571;46018;-71
2022/10/29 14:43:43;;;;;;;;;9.50;9.00;;;;;22.81;44.14;101693.22;146622;668;46021;-71
2022/10/29 14:46:41;;;;;;;;;14.00;11.50;;;;;22.74;43.79;101698.37;146617;636;46014;-71
2022/10/29 14:50:04;;;;;;;;;11.50;11.25;;;;;22.68;46.01;101700.91;146617;569;47020;-72